Colstrip, MT

1:47 AM MDT on April 27, 2017 (GMT -0600)
Gargoyle's Roost | | Change Station

Elev 3241 ft 45.89 °N, 106.63 °W | Updated 1 minute ago

Mostly Cloudy
Mostly Cloudy
36.1 °F
Feels Like 36 °F
N
0.0
Wind Variable Wind from North
Gusts 1.0 mph

Today
High -- | Low -- °F
--% Chance of Precip.
Yesterday
High -- | Low -- °F
Precip. -- in
Pressure 29.70 in
Visibility 10.0 miles
Clouds Clear
Windchill 36 °F
Dew Point 33 °F
Humidity 88%
Rainfall 0.00 in
Snow Depth Not available.
5:59 AM 8:09 PM
New Moon, 1% visible
METAR KMLS 270653Z AUTO 14006KT 10SM CLR 02/M02 A2966 RMK AO2 SLP058 T00171017 400940011
Pressure 29.70 in
Visibility 10.0 miles
Clouds Clear
Windchill 36 °F
Dew Point 33 °F
Humidity 88%
Rainfall 0.00 in
Snow Depth Not available.
5:59 AM 8:09 PM
New Moon, 1% visible
METAR KMLS 270653Z AUTO 14006KT 10SM CLR 02/M02 A2966 RMK AO2 SLP058 T00171017 400940011

Get Severe Weather Alerts

Thanks for signing up!

Be on the lookout for a verification email in your inbox.

You'll start receiving the daily forecast at 8 AM.

×

10-Day Weather Forecast

Almanac

Astronomy

Apr. 27, 2017 Rise Set
Actual Time
Civil Twilight
Nautical Twilight
Astronomical Twilight
Moon
Length of Visible Light
Length of Day
Tomorrow will be .
, % of the Moon is Illuminated

Today's Extremes

State Highs State Lows

Community

WunderPhotos

WunderBlog® & News

Nearby

Air Quality

  Air Quality AQ Index Pollutant
Not available.

Snow Depth

Station Depth Elevation

Earthquake Activity

City Distance Mag. Time & Date
Minimum magnitude displayed is 2.5.

Coastal Water Temperatures

Place Temperature

Stations

Nearby Weather Stations

Station Location Temp. Windchill Dew Point Humidity Wind Precip. Elev Updated Type
                   

Watches & Warnings

There are currently no watches in effect.